Lakeside Heights, Texas
Current Conditions -  °F | °C
As of 10:15 AM on Sunday 23 Nov 2014 (Local Time) from KDZB Reporting Station
Clear Clear  
Wind Chill: 71°   Ceiling: Unl
Heat Index: 71°   Visibility: 10mi
Dew Point: 46°   Wind: 10mph
Humidity: 42%   Direction: 260°W
Pressure: 29.66"   Gusts: 17mph
Location:  30.6735°N, 98.4512°W
Report Text: KDZB 231615Z AUTO 26009G15KT 10SM CLR 22/08 A2966 RMK AO2 T02150079
Loading
Personal Weather Stations






























Interactive Weather Map New forecast layout! Learn more

10-Day Weather Forecast

Advertisements
Track Severe Weather on mobile